Ubaitaba, Brazil
Current Conditions -  °F | °C
As of 9:00 PM on Tuesday 21 Oct 2014 (Local Time) from SBIL Reporting Station
Scattered Clouds Scattered Clouds  
Wind Chill: 77°   Ceiling: Unl
Heat Index: 79°   Visibility: 6mi
Dew Point: 70°   Wind: 8mph
Humidity: 78%   Direction: 90°E
Pressure: 30"   Gusts: NA
Location:  14.31°S, 39.32°W
Report Text: SBIL 220000Z 09007KT 9999 SCT025 25/21 Q1016
Loading
Personal Weather Stations






























Interactive Weather Map
Tropical Storm Tracking
New forecast layout! Learn more

10-Day Weather Forecast

Advertisements
Track Severe Weather on mobile